sensor_id;sensor_type;location;lat;lon;timestamp;temperature;humidity
24408;DHT22;12542;50.924;4.516;2023-02-15T00:01:54;4.60;99.90
24408;DHT22;12542;50.924;4.516;2023-02-15T00:04:22;4.50;99.90
24408;DHT22;12542;50.924;4.516;2023-02-15T00:06:49;4.50;99.90
24408;DHT22;12542;50.924;4.516;2023-02-15T00:09:14;4.60;99.90
24408;DHT22;12542;50.924;4.516;2023-02-15T00:11:40;4.60;99.90
24408;DHT22;12542;50.924;4.516;2023-02-15T00:14:09;4.50;99.90
24408;DHT22;12542;50.924;4.516;2023-02-15T00:16:35;4.50;99.90
24408;DHT22;12542;50.924;4.516;2023-02-15T00:19:01;4.50;99.90
24408;DHT22;12542;50.924;4.516;2023-02-15T00:21:28;4.40;99.90
24408;DHT22;12542;50.924;4.516;2023-02-15T00:23:55;4.30;99.90
24408;DHT22;12542;50.924;4.516;2023-02-15T00:26:21;4.30;99.90
24408;DHT22;12542;50.924;4.516;2023-02-15T00:28:47;4.30;99.90
24408;DHT22;12542;50.924;4.516;2023-02-15T00:31:13;4.30;99.90
24408;DHT22;12542;50.924;4.516;2023-02-15T00:33:39;4.20;99.90
24408;DHT22;12542;50.924;4.516;2023-02-15T00:36:07;4.20;99.90
24408;DHT22;12542;50.924;4.516;2023-02-15T00:38:33;4.10;99.90
24408;DHT22;12542;50.924;4.516;2023-02-15T00:41:01;4.10;99.90
24408;DHT22;12542;50.924;4.516;2023-02-15T00:43:28;4.20;99.90
24408;DHT22;12542;50.924;4.516;2023-02-15T00:45:54;4.40;99.90
24408;DHT22;12542;50.924;4.516;2023-02-15T00:48:20;4.40;99.90
24408;DHT22;12542;50.924;4.516;2023-02-15T00:50:49;4.30;99.90
24408;DHT22;12542;50.924;4.516;2023-02-15T00:53:15;4.20;99.90
24408;DHT22;12542;50.924;4.516;2023-02-15T00:55:41;4.20;99.90
24408;DHT22;12542;50.924;4.516;2023-02-15T00:58:08;4.10;99.90
24408;DHT22;12542;50.924;4.516;2023-02-15T01:00:35;4.10;99.90
24408;DHT22;12542;50.924;4.516;2023-02-15T01:03:01;4.00;99.90
24408;DHT22;12542;50.924;4.516;2023-02-15T01:05:27;4.00;99.90
24408;DHT22;12542;50.924;4.516;2023-02-15T01:07:55;3.90;99.90
24408;DHT22;12542;50.924;4.516;2023-02-15T01:10:21;3.90;99.90
24408;DHT22;12542;50.924;4.516;2023-02-15T01:12:46;3.90;99.90
24408;DHT22;12542;50.924;4.516;2023-02-15T01:15:14;3.80;99.90
24408;DHT22;12542;50.924;4.516;2023-02-15T01:17:40;3.90;99.90
24408;DHT22;12542;50.924;4.516;2023-02-15T01:20:06;3.90;99.90
24408;DHT22;12542;50.924;4.516;2023-02-15T01:22:32;3.80;99.90
24408;DHT22;12542;50.924;4.516;2023-02-15T01:24:58;3.80;99.90
24408;DHT22;12542;50.924;4.516;2023-02-15T01:27:24;3.80;99.90
24408;DHT22;12542;50.924;4.516;2023-02-15T01:29:51;3.80;99.90
24408;DHT22;12542;50.924;4.516;2023-02-15T01:32:17;3.80;99.90
24408;DHT22;12542;50.924;4.516;2023-02-15T01:34:43;3.80;99.90
24408;DHT22;12542;50.924;4.516;2023-02-15T01:37:08;3.80;99.90
24408;DHT22;12542;50.924;4.516;2023-02-15T01:39:36;3.80;99.90
24408;DHT22;12542;50.924;4.516;2023-02-15T01:42:02;3.80;99.90
24408;DHT22;12542;50.924;4.516;2023-02-15T01:45:04;3.80;99.90
24408;DHT22;12542;50.924;4.516;2023-02-15T01:47:42;3.80;99.90
24408;DHT22;12542;50.924;4.516;2023-02-15T01:50:46;3.80;99.90
24408;DHT22;12542;50.924;4.516;2023-02-15T01:56:37;3.70;99.90
24408;DHT22;12542;50.924;4.516;2023-02-15T01:58:43;3.70;99.90
24408;DHT22;12542;50.924;4.516;2023-02-15T02:01:10;3.70;99.90
24408;DHT22;12542;50.924;4.516;2023-02-15T02:06:11;3.70;99.90
24408;DHT22;12542;50.924;4.516;2023-02-15T02:08:37;3.70;99.90
24408;DHT22;12542;50.924;4.516;2023-02-15T02:11:04;3.70;99.90
24408;DHT22;12542;50.924;4.516;2023-02-15T02:13:34;3.60;99.90
24408;DHT22;12542;50.924;4.516;2023-02-15T02:18:49;3.40;99.90
24408;DHT22;12542;50.924;4.516;2023-02-15T02:27:37;3.50;99.90
24408;DHT22;12542;50.924;4.516;2023-02-15T02:41:24;3.30;99.90
24408;DHT22;12542;50.924;4.516;2023-02-15T02:47:04;3.20;99.90
24408;DHT22;12542;50.924;4.516;2023-02-15T02:49:40;3.20;99.90
24408;DHT22;12542;50.924;4.516;2023-02-15T02:54:54;3.10;99.90
24408;DHT22;12542;50.924;4.516;2023-02-15T02:57:23;3.00;99.90
24408;DHT22;12542;50.924;4.516;2023-02-15T02:59:50;3.00;99.90
24408;DHT22;12542;50.924;4.516;2023-02-15T03:02:23;3.00;99.90
24408;DHT22;12542;50.924;4.516;2023-02-15T03:04:58;3.10;99.90
24408;DHT22;12542;50.924;4.516;2023-02-15T03:07:30;3.10;99.90
24408;DHT22;12542;50.924;4.516;2023-02-15T03:09:58;3.10;99.90
24408;DHT22;12542;50.924;4.516;2023-02-15T03:12:34;3.00;99.90
24408;DHT22;12542;50.924;4.516;2023-02-15T03:15:13;3.00;99.90
24408;DHT22;12542;50.924;4.516;2023-02-15T03:17:43;3.00;99.90
24408;DHT22;12542;50.924;4.516;2023-02-15T03:20:16;2.90;99.90
24408;DHT22;12542;50.924;4.516;2023-02-15T03:22:55;2.80;99.90
24408;DHT22;12542;50.924;4.516;2023-02-15T03:25:34;2.90;99.90
24408;DHT22;12542;50.924;4.516;2023-02-15T03:28:10;2.90;99.90
24408;DHT22;12542;50.924;4.516;2023-02-15T03:30:39;3.00;99.90
24408;DHT22;12542;50.924;4.516;2023-02-15T03:33:06;3.00;99.90
24408;DHT22;12542;50.924;4.516;2023-02-15T03:38:46;3.00;99.90
24408;DHT22;12542;50.924;4.516;2023-02-15T03:41:17;3.00;99.90
24408;DHT22;12542;50.924;4.516;2023-02-15T03:44:08;2.70;99.90
24408;DHT22;12542;50.924;4.516;2023-02-15T03:47:02;2.60;99.90
24408;DHT22;12542;50.924;4.516;2023-02-15T03:49:46;2.70;99.90
24408;DHT22;12542;50.924;4.516;2023-02-15T03:52:14;2.80;99.90
24408;DHT22;12542;50.924;4.516;2023-02-15T03:54:41;2.80;99.90
24408;DHT22;12542;50.924;4.516;2023-02-15T03:57:12;2.80;99.90
24408;DHT22;12542;50.924;4.516;2023-02-15T03:59:58;2.80;99.90
24408;DHT22;12542;50.924;4.516;2023-02-15T04:05:27;2.80;99.90
24408;DHT22;12542;50.924;4.516;2023-02-15T04:07:52;2.60;99.90
24408;DHT22;12542;50.924;4.516;2023-02-15T04:10:18;2.60;99.90
24408;DHT22;12542;50.924;4.516;2023-02-15T04:13:03;2.60;99.90
24408;DHT22;12542;50.924;4.516;2023-02-15T04:15:29;2.60;99.90
24408;DHT22;12542;50.924;4.516;2023-02-15T04:18:13;2.60;99.90
24408;DHT22;12542;50.924;4.516;2023-02-15T04:20:42;2.40;99.90
24408;DHT22;12542;50.924;4.516;2023-02-15T04:23:27;2.10;99.90
24408;DHT22;12542;50.924;4.516;2023-02-15T04:26:11;2.20;99.90
24408;DHT22;12542;50.924;4.516;2023-02-15T04:28:36;2.20;99.90
24408;DHT22;12542;50.924;4.516;2023-02-15T04:31:02;2.20;99.90
24408;DHT22;12542;50.924;4.516;2023-02-15T04:33:28;2.30;99.90
24408;DHT22;12542;50.924;4.516;2023-02-15T04:35:53;2.30;99.90
24408;DHT22;12542;50.924;4.516;2023-02-15T04:38:19;2.40;99.90
24408;DHT22;12542;50.924;4.516;2023-02-15T04:40:50;2.40;99.90
24408;DHT22;12542;50.924;4.516;2023-02-15T04:43:19;2.40;99.90
24408;DHT22;12542;50.924;4.516;2023-02-15T04:45:51;2.40;99.90
24408;DHT22;12542;50.924;4.516;2023-02-15T04:48:17;2.40;99.90
24408;DHT22;12542;50.924;4.516;2023-02-15T04:50:44;2.50;99.90
24408;DHT22;12542;50.924;4.516;2023-02-15T04:53:10;2.60;99.90
24408;DHT22;12542;50.924;4.516;2023-02-15T04:55:36;2.60;99.90
24408;DHT22;12542;50.924;4.516;2023-02-15T04:58:04;2.40;99.90
24408;DHT22;12542;50.924;4.516;2023-02-15T05:00:30;2.40;99.90
24408;DHT22;12542;50.924;4.516;2023-02-15T05:02:56;2.20;99.90
24408;DHT22;12542;50.924;4.516;2023-02-15T05:05:21;2.00;99.90
24408;DHT22;12542;50.924;4.516;2023-02-15T05:07:47;1.80;99.90
24408;DHT22;12542;50.924;4.516;2023-02-15T05:10:13;1.70;99.90
24408;DHT22;12542;50.924;4.516;2023-02-15T05:12:38;1.90;99.90
24408;DHT22;12542;50.924;4.516;2023-02-15T05:15:06;2.10;99.90
24408;DHT22;12542;50.924;4.516;2023-02-15T05:17:32;2.10;99.90
24408;DHT22;12542;50.924;4.516;2023-02-15T05:19:59;2.00;99.90
24408;DHT22;12542;50.924;4.516;2023-02-15T05:22:24;1.80;99.90
24408;DHT22;12542;50.924;4.516;2023-02-15T05:24:50;1.90;99.90
24408;DHT22;12542;50.924;4.516;2023-02-15T05:27:34;1.90;99.90
24408;DHT22;12542;50.924;4.516;2023-02-15T05:30:18;1.80;99.90
24408;DHT22;12542;50.924;4.516;2023-02-15T05:32:44;1.90;99.90
24408;DHT22;12542;50.924;4.516;2023-02-15T05:35:14;1.90;99.90
24408;DHT22;12542;50.924;4.516;2023-02-15T05:37:40;2.00;99.90
24408;DHT22;12542;50.924;4.516;2023-02-15T05:40:08;2.00;99.90
24408;DHT22;12542;50.924;4.516;2023-02-15T05:42:34;2.10;99.90
24408;DHT22;12542;50.924;4.516;2023-02-15T05:45:02;2.30;99.90
24408;DHT22;12542;50.924;4.516;2023-02-15T05:47:29;2.40;99.90
24408;DHT22;12542;50.924;4.516;2023-02-15T05:49:54;2.40;99.90
24408;DHT22;12542;50.924;4.516;2023-02-15T05:52:20;2.60;99.90
24408;DHT22;12542;50.924;4.516;2023-02-15T05:54:46;2.70;99.90
24408;DHT22;12542;50.924;4.516;2023-02-15T05:57:12;2.60;99.90
24408;DHT22;12542;50.924;4.516;2023-02-15T05:59:37;2.30;99.90
24408;DHT22;12542;50.924;4.516;2023-02-15T06:02:03;2.10;99.90
24408;DHT22;12542;50.924;4.516;2023-02-15T06:04:28;2.10;99.90
24408;DHT22;12542;50.924;4.516;2023-02-15T06:06:54;2.40;99.90
24408;DHT22;12542;50.924;4.516;2023-02-15T06:09:20;2.30;99.90
24408;DHT22;12542;50.924;4.516;2023-02-15T06:11:45;2.20;99.90
24408;DHT22;12542;50.924;4.516;2023-02-15T06:14:16;2.20;99.90
24408;DHT22;12542;50.924;4.516;2023-02-15T06:16:41;2.10;99.90
24408;DHT22;12542;50.924;4.516;2023-02-15T06:19:08;1.90;99.90
24408;DHT22;12542;50.924;4.516;2023-02-15T06:21:33;2.10;99.90
24408;DHT22;12542;50.924;4.516;2023-02-15T06:23:59;2.20;99.90
24408;DHT22;12542;50.924;4.516;2023-02-15T06:26:25;2.40;99.90
24408;DHT22;12542;50.924;4.516;2023-02-15T06:28:50;2.50;99.90
24408;DHT22;12542;50.924;4.516;2023-02-15T06:31:16;2.30;99.90
24408;DHT22;12542;50.924;4.516;2023-02-15T06:33:42;2.60;99.90
24408;DHT22;12542;50.924;4.516;2023-02-15T06:36:07;2.70;99.90
24408;DHT22;12542;50.924;4.516;2023-02-15T06:38:34;2.60;99.90
24408;DHT22;12542;50.924;4.516;2023-02-15T06:40:59;2.70;99.90
24408;DHT22;12542;50.924;4.516;2023-02-15T06:43:25;2.60;99.90
24408;DHT22;12542;50.924;4.516;2023-02-15T06:45:51;2.70;99.90
24408;DHT22;12542;50.924;4.516;2023-02-15T06:48:19;2.80;99.90
24408;DHT22;12542;50.924;4.516;2023-02-15T06:50:44;2.90;99.90
24408;DHT22;12542;50.924;4.516;2023-02-15T06:53:10;3.00;99.90
24408;DHT22;12542;50.924;4.516;2023-02-15T06:55:36;3.10;99.90
24408;DHT22;12542;50.924;4.516;2023-02-15T06:58:01;3.00;99.90
24408;DHT22;12542;50.924;4.516;2023-02-15T07:00:27;3.00;99.90
24408;DHT22;12542;50.924;4.516;2023-02-15T07:02:57;2.90;99.90
24408;DHT22;12542;50.924;4.516;2023-02-15T07:05:24;3.00;99.90
24408;DHT22;12542;50.924;4.516;2023-02-15T07:07:50;3.00;99.90
24408;DHT22;12542;50.924;4.516;2023-02-15T07:10:16;3.00;99.90
24408;DHT22;12542;50.924;4.516;2023-02-15T07:12:44;3.10;99.90
24408;DHT22;12542;50.924;4.516;2023-02-15T07:15:16;3.20;99.90
24408;DHT22;12542;50.924;4.516;2023-02-15T07:17:43;3.00;99.90
24408;DHT22;12542;50.924;4.516;2023-02-15T07:20:18;3.30;99.90
24408;DHT22;12542;50.924;4.516;2023-02-15T07:22:44;3.90;99.90
24408;DHT22;12542;50.924;4.516;2023-02-15T07:25:10;4.50;99.90
24408;DHT22;12542;50.924;4.516;2023-02-15T07:27:36;5.20;99.90
24408;DHT22;12542;50.924;4.516;2023-02-15T07:30:03;6.00;99.90
24408;DHT22;12542;50.924;4.516;2023-02-15T07:32:30;6.10;99.90
24408;DHT22;12542;50.924;4.516;2023-02-15T07:34:56;6.90;99.90
24408;DHT22;12542;50.924;4.516;2023-02-15T07:37:22;7.60;99.90
24408;DHT22;12542;50.924;4.516;2023-02-15T07:39:48;8.20;99.90
24408;DHT22;12542;50.924;4.516;2023-02-15T07:42:18;8.30;99.90
24408;DHT22;12542;50.924;4.516;2023-02-15T07:44:45;7.70;99.90
24408;DHT22;12542;50.924;4.516;2023-02-15T07:47:11;7.40;99.90
24408;DHT22;12542;50.924;4.516;2023-02-15T07:49:37;7.40;99.90
24408;DHT22;12542;50.924;4.516;2023-02-15T07:52:03;7.10;99.90
24408;DHT22;12542;50.924;4.516;2023-02-15T07:54:31;8.00;99.90
24408;DHT22;12542;50.924;4.516;2023-02-15T07:56:57;8.30;99.90
24408;DHT22;12542;50.924;4.516;2023-02-15T07:59:23;8.60;99.90
24408;DHT22;12542;50.924;4.516;2023-02-15T08:01:49;8.90;99.90
24408;DHT22;12542;50.924;4.516;2023-02-15T08:04:15;9.20;99.90
24408;DHT22;12542;50.924;4.516;2023-02-15T08:06:40;10.40;99.90
24408;DHT22;12542;50.924;4.516;2023-02-15T08:09:08;11.10;99.90
24408;DHT22;12542;50.924;4.516;2023-02-15T08:11:37;12.50;99.90
24408;DHT22;12542;50.924;4.516;2023-02-15T08:14:19;12.20;99.90
24408;DHT22;12542;50.924;4.516;2023-02-15T08:16:55;11.80;99.90
24408;DHT22;12542;50.924;4.516;2023-02-15T08:19:27;11.30;99.90
24408;DHT22;12542;50.924;4.516;2023-02-15T08:21:58;11.30;99.90
24408;DHT22;12542;50.924;4.516;2023-02-15T08:24:27;11.30;99.90
24408;DHT22;12542;50.924;4.516;2023-02-15T08:26:53;12.30;99.90
24408;DHT22;12542;50.924;4.516;2023-02-15T08:29:21;13.60;99.90
24408;DHT22;12542;50.924;4.516;2023-02-15T08:31:53;14.20;99.90
24408;DHT22;12542;50.924;4.516;2023-02-15T08:34:20;15.00;98.20
24408;DHT22;12542;50.924;4.516;2023-02-15T08:36:46;15.20;96.70
24408;DHT22;12542;50.924;4.516;2023-02-15T08:39:12;15.30;97.00
24408;DHT22;12542;50.924;4.516;2023-02-15T08:41:39;16.40;95.10
24408;DHT22;12542;50.924;4.516;2023-02-15T08:44:08;16.90;93.00
24408;DHT22;12542;50.924;4.516;2023-02-15T08:46:37;17.20;93.30
24408;DHT22;12542;50.924;4.516;2023-02-15T08:49:03;17.40;92.40
24408;DHT22;12542;50.924;4.516;2023-02-15T08:51:31;17.70;91.90
24408;DHT22;12542;50.924;4.516;2023-02-15T08:54:02;17.90;92.10
24408;DHT22;12542;50.924;4.516;2023-02-15T08:56:32;17.70;91.60
24408;DHT22;12542;50.924;4.516;2023-02-15T08:58:58;17.70;91.70
24408;DHT22;12542;50.924;4.516;2023-02-15T09:01:25;17.30;92.30
24408;DHT22;12542;50.924;4.516;2023-02-15T09:03:55;17.70;92.50
24408;DHT22;12542;50.924;4.516;2023-02-15T09:06:24;17.10;93.50
24408;DHT22;12542;50.924;4.516;2023-02-15T09:08:51;17.50;93.30
24408;DHT22;12542;50.924;4.516;2023-02-15T09:11:25;18.00;92.40
24408;DHT22;12542;50.924;4.516;2023-02-15T09:13:56;18.50;91.50
24408;DHT22;12542;50.924;4.516;2023-02-15T09:16:24;18.50;91.50
24408;DHT22;12542;50.924;4.516;2023-02-15T09:18:51;18.30;91.90
24408;DHT22;12542;50.924;4.516;2023-02-15T09:21:20;17.60;92.80
24408;DHT22;12542;50.924;4.516;2023-02-15T09:23:48;17.60;93.80
24408;DHT22;12542;50.924;4.516;2023-02-15T09:26:22;17.80;92.90
24408;DHT22;12542;50.924;4.516;2023-02-15T09:28:51;17.80;92.70
24408;DHT22;12542;50.924;4.516;2023-02-15T09:31:20;17.90;92.20
24408;DHT22;12542;50.924;4.516;2023-02-15T09:33:47;18.00;92.30
24408;DHT22;12542;50.924;4.516;2023-02-15T09:36:28;18.20;92.10
24408;DHT22;12542;50.924;4.516;2023-02-15T09:39:18;18.20;91.60
24408;DHT22;12542;50.924;4.516;2023-02-15T09:47:57;16.40;94.80
24408;DHT22;12542;50.924;4.516;2023-02-15T10:01:39;14.70;97.70
24408;DHT22;12542;50.924;4.516;2023-02-15T10:09:41;15.00;97.10
24408;DHT22;12542;50.924;4.516;2023-02-15T10:12:21;14.60;97.10
24408;DHT22;12542;50.924;4.516;2023-02-15T10:25:58;15.30;95.90
24408;DHT22;12542;50.924;4.516;2023-02-15T10:28:32;16.00;96.90
24408;DHT22;12542;50.924;4.516;2023-02-15T10:33:50;16.80;95.00
24408;DHT22;12542;50.924;4.516;2023-02-15T11:07:40;17.00;94.60
24408;DHT22;12542;50.924;4.516;2023-02-15T11:13:09;17.60;92.40
24408;DHT22;12542;50.924;4.516;2023-02-15T11:15:40;17.80;92.00
24408;DHT22;12542;50.924;4.516;2023-02-15T11:18:15;17.80;92.60
24408;DHT22;12542;50.924;4.516;2023-02-15T11:23:22;18.20;92.70
24408;DHT22;12542;50.924;4.516;2023-02-15T11:26:03;18.20;91.40
24408;DHT22;12542;50.924;4.516;2023-02-15T11:28:31;18.10;91.20
24408;DHT22;12542;50.924;4.516;2023-02-15T11:31:19;18.10;92.10
24408;DHT22;12542;50.924;4.516;2023-02-15T11:34:02;18.30;91.70
24408;DHT22;12542;50.924;4.516;2023-02-15T11:36:35;18.30;91.50
24408;DHT22;12542;50.924;4.516;2023-02-15T11:39:14;18.20;91.20
24408;DHT22;12542;50.924;4.516;2023-02-15T11:41:48;18.10;91.50
24408;DHT22;12542;50.924;4.516;2023-02-15T11:47:12;17.80;91.20
24408;DHT22;12542;50.924;4.516;2023-02-15T11:49:39;17.80;92.70
24408;DHT22;12542;50.924;4.516;2023-02-15T11:52:13;18.30;92.30
24408;DHT22;12542;50.924;4.516;2023-02-15T11:54:45;18.10;92.60
24408;DHT22;12542;50.924;4.516;2023-02-15T11:57:31;18.40;91.90
24408;DHT22;12542;50.924;4.516;2023-02-15T12:00:04;18.70;91.30
24408;DHT22;12542;50.924;4.516;2023-02-15T12:02:36;19.00;91.00
24408;DHT22;12542;50.924;4.516;2023-02-15T12:05:07;18.60;89.50
24408;DHT22;12542;50.924;4.516;2023-02-15T12:08:03;18.00;91.00
24408;DHT22;12542;50.924;4.516;2023-02-15T12:10:34;18.10;92.10
24408;DHT22;12542;50.924;4.516;2023-02-15T12:13:27;18.20;91.90
24408;DHT22;12542;50.924;4.516;2023-02-15T12:15:56;18.30;91.70
24408;DHT22;12542;50.924;4.516;2023-02-15T12:18:36;18.30;92.20
24408;DHT22;12542;50.924;4.516;2023-02-15T12:21:10;18.30;91.40
24408;DHT22;12542;50.924;4.516;2023-02-15T12:23:46;18.10;91.80
24408;DHT22;12542;50.924;4.516;2023-02-15T12:26:14;17.90;92.40
24408;DHT22;12542;50.924;4.516;2023-02-15T12:28:44;17.70;92.50
24408;DHT22;12542;50.924;4.516;2023-02-15T12:31:26;17.40;93.10
24408;DHT22;12542;50.924;4.516;2023-02-15T12:33:57;17.10;94.00
24408;DHT22;12542;50.924;4.516;2023-02-15T12:36:40;16.70;94.40
24408;DHT22;12542;50.924;4.516;2023-02-15T12:41:44;16.90;94.50
24408;DHT22;12542;50.924;4.516;2023-02-15T12:44:28;17.00;94.40
24408;DHT22;12542;50.924;4.516;2023-02-15T12:49:24;17.10;94.60
24408;DHT22;12542;50.924;4.516;2023-02-15T12:51:55;17.00;94.00
24408;DHT22;12542;50.924;4.516;2023-02-15T12:54:41;17.30;94.20
24408;DHT22;12542;50.924;4.516;2023-02-15T12:57:27;17.80;94.40
24408;DHT22;12542;50.924;4.516;2023-02-15T13:02:44;18.10;92.70
24408;DHT22;12542;50.924;4.516;2023-02-15T13:07:51;18.40;92.90
24408;DHT22;12542;50.924;4.516;2023-02-15T13:12:50;16.70;93.50
24408;DHT22;12542;50.924;4.516;2023-02-15T13:15:40;16.70;95.00
24408;DHT22;12542;50.924;4.516;2023-02-15T13:18:31;16.90;94.90
24408;DHT22;12542;50.924;4.516;2023-02-15T13:21:26;16.60;94.50
24408;DHT22;12542;50.924;4.516;2023-02-15T13:24:00;16.40;95.50
24408;DHT22;12542;50.924;4.516;2023-02-15T13:26:30;16.00;95.80
24408;DHT22;12542;50.924;4.516;2023-02-15T13:28:59;15.80;95.90
24408;DHT22;12542;50.924;4.516;2023-02-15T13:31:31;15.50;96.70
24408;DHT22;12542;50.924;4.516;2023-02-15T13:47:36;17.10;95.70
24408;DHT22;12542;50.924;4.516;2023-02-15T14:03:38;17.00;95.70
24408;DHT22;12542;50.924;4.516;2023-02-15T14:20:36;17.10;95.60
24408;DHT22;12542;50.924;4.516;2023-02-15T14:23:10;17.30;95.30
24408;DHT22;12542;50.924;4.516;2023-02-15T14:25:54;17.20;95.10
24408;DHT22;12542;50.924;4.516;2023-02-15T14:28:51;17.00;95.20
24408;DHT22;12542;50.924;4.516;2023-02-15T14:31:28;17.10;95.60
24408;DHT22;12542;50.924;4.516;2023-02-15T14:33:57;17.00;95.80
24408;DHT22;12542;50.924;4.516;2023-02-15T14:36:27;17.00;95.70
24408;DHT22;12542;50.924;4.516;2023-02-15T14:42:02;16.90;95.60
24408;DHT22;12542;50.924;4.516;2023-02-15T14:44:40;16.60;95.50
24408;DHT22;12542;50.924;4.516;2023-02-15T14:47:31;16.40;95.70
24408;DHT22;12542;50.924;4.516;2023-02-15T14:53:37;16.20;96.60
24408;DHT22;12542;50.924;4.516;2023-02-15T14:59:00;16.10;97.00
24408;DHT22;12542;50.924;4.516;2023-02-15T15:01:35;16.20;97.30
24408;DHT22;12542;50.924;4.516;2023-02-15T15:06:32;16.10;97.50
24408;DHT22;12542;50.924;4.516;2023-02-15T15:09:11;16.10;97.70
24408;DHT22;12542;50.924;4.516;2023-02-15T15:11:50;15.80;98.20
24408;DHT22;12542;50.924;4.516;2023-02-15T15:16:59;15.80;98.30
24408;DHT22;12542;50.924;4.516;2023-02-15T15:22:20;15.70;99.00
24408;DHT22;12542;50.924;4.516;2023-02-15T15:24:48;15.50;99.30
24408;DHT22;12542;50.924;4.516;2023-02-15T15:27:40;15.40;99.60
24408;DHT22;12542;50.924;4.516;2023-02-15T15:33:20;15.40;99.90
24408;DHT22;12542;50.924;4.516;2023-02-15T15:39:17;15.30;99.90
24408;DHT22;12542;50.924;4.516;2023-02-15T15:44:49;15.30;99.90
24408;DHT22;12542;50.924;4.516;2023-02-15T15:49:49;15.10;99.90
24408;DHT22;12542;50.924;4.516;2023-02-15T15:52:18;15.10;99.90
24408;DHT22;12542;50.924;4.516;2023-02-15T15:54:46;14.90;99.90
24408;DHT22;12542;50.924;4.516;2023-02-15T15:57:30;14.90;99.90
24408;DHT22;12542;50.924;4.516;2023-02-15T15:59:57;14.80;99.90
24408;DHT22;12542;50.924;4.516;2023-02-15T16:02:25;14.80;99.90
24408;DHT22;12542;50.924;4.516;2023-02-15T16:04:51;14.80;99.90
24408;DHT22;12542;50.924;4.516;2023-02-15T16:07:23;14.60;99.90
24408;DHT22;12542;50.924;4.516;2023-02-15T16:10:02;14.60;99.90
24408;DHT22;12542;50.924;4.516;2023-02-15T16:12:31;14.50;99.90
24408;DHT22;12542;50.924;4.516;2023-02-15T16:15:11;14.40;99.90
24408;DHT22;12542;50.924;4.516;2023-02-15T16:17:41;14.30;99.90
24408;DHT22;12542;50.924;4.516;2023-02-15T16:28:14;13.90;99.90
24408;DHT22;12542;50.924;4.516;2023-02-15T16:30:40;13.70;99.90
24408;DHT22;12542;50.924;4.516;2023-02-15T16:33:12;13.20;99.90
24408;DHT22;12542;50.924;4.516;2023-02-15T16:35:40;13.20;99.90
24408;DHT22;12542;50.924;4.516;2023-02-15T16:38:09;13.20;99.90
24408;DHT22;12542;50.924;4.516;2023-02-15T16:40:56;12.80;99.90
24408;DHT22;12542;50.924;4.516;2023-02-15T16:43:28;12.90;99.90
24408;DHT22;12542;50.924;4.516;2023-02-15T16:46:02;12.70;99.90
24408;DHT22;12542;50.924;4.516;2023-02-15T16:48:29;12.70;99.90
24408;DHT22;12542;50.924;4.516;2023-02-15T16:50:56;12.60;99.90
24408;DHT22;12542;50.924;4.516;2023-02-15T16:53:26;12.20;99.90
24408;DHT22;12542;50.924;4.516;2023-02-15T16:55:57;12.00;99.90
24408;DHT22;12542;50.924;4.516;2023-02-15T16:58:43;11.80;99.90
24408;DHT22;12542;50.924;4.516;2023-02-15T17:01:12;11.70;99.90
24408;DHT22;12542;50.924;4.516;2023-02-15T17:03:40;11.50;99.90
24408;DHT22;12542;50.924;4.516;2023-02-15T17:06:23;11.50;99.90
24408;DHT22;12542;50.924;4.516;2023-02-15T17:08:51;11.50;99.90
24408;DHT22;12542;50.924;4.516;2023-02-15T17:11:34;11.40;99.90
24408;DHT22;12542;50.924;4.516;2023-02-15T17:16:54;10.90;99.90
24408;DHT22;12542;50.924;4.516;2023-02-15T17:19:31;10.70;99.90
24408;DHT22;12542;50.924;4.516;2023-02-15T17:22:05;10.60;99.90
24408;DHT22;12542;50.924;4.516;2023-02-15T17:24:38;10.70;99.90
24408;DHT22;12542;50.924;4.516;2023-02-15T17:29:50;10.60;99.90
24408;DHT22;12542;50.924;4.516;2023-02-15T17:32:22;10.60;99.90
24408;DHT22;12542;50.924;4.516;2023-02-15T17:34:56;10.50;99.90
24408;DHT22;12542;50.924;4.516;2023-02-15T17:39:59;10.60;99.90
24408;DHT22;12542;50.924;4.516;2023-02-15T17:42:26;10.50;99.90
24408;DHT22;12542;50.924;4.516;2023-02-15T17:44:53;10.40;99.90
24408;DHT22;12542;50.924;4.516;2023-02-15T17:47:25;10.60;99.90
24408;DHT22;12542;50.924;4.516;2023-02-15T17:49:54;10.30;99.90
24408;DHT22;12542;50.924;4.516;2023-02-15T17:52:20;10.40;99.90
24408;DHT22;12542;50.924;4.516;2023-02-15T17:54:45;10.40;99.90
24408;DHT22;12542;50.924;4.516;2023-02-15T17:57:30;10.30;99.90
24408;DHT22;12542;50.924;4.516;2023-02-15T17:59:56;10.20;99.90
24408;DHT22;12542;50.924;4.516;2023-02-15T18:02:43;10.30;99.90
24408;DHT22;12542;50.924;4.516;2023-02-15T18:05:27;10.20;99.90
24408;DHT22;12542;50.924;4.516;2023-02-15T18:08:16;10.30;99.90
24408;DHT22;12542;50.924;4.516;2023-02-15T18:11:01;10.30;99.90
24408;DHT22;12542;50.924;4.516;2023-02-15T18:13:45;10.40;99.90
24408;DHT22;12542;50.924;4.516;2023-02-15T18:16:19;10.20;99.90
24408;DHT22;12542;50.924;4.516;2023-02-15T18:18:45;10.20;99.90
24408;DHT22;12542;50.924;4.516;2023-02-15T18:21:11;10.00;99.90
24408;DHT22;12542;50.924;4.516;2023-02-15T18:23:38;10.00;99.90
24408;DHT22;12542;50.924;4.516;2023-02-15T18:26:04;10.00;99.90
24408;DHT22;12542;50.924;4.516;2023-02-15T18:28:30;10.00;99.90
24408;DHT22;12542;50.924;4.516;2023-02-15T18:30:57;10.10;99.90
24408;DHT22;12542;50.924;4.516;2023-02-15T18:35:56;10.10;99.90
24408;DHT22;12542;50.924;4.516;2023-02-15T18:38:22;9.90;99.90
24408;DHT22;12542;50.924;4.516;2023-02-15T18:40:48;9.70;99.90
24408;DHT22;12542;50.924;4.516;2023-02-15T18:43:15;9.60;99.90
24408;DHT22;12542;50.924;4.516;2023-02-15T18:45:40;9.60;99.90
24408;DHT22;12542;50.924;4.516;2023-02-15T18:48:06;9.70;99.90
24408;DHT22;12542;50.924;4.516;2023-02-15T18:50:36;9.90;99.90
24408;DHT22;12542;50.924;4.516;2023-02-15T18:53:06;9.80;99.90
24408;DHT22;12542;50.924;4.516;2023-02-15T18:55:36;9.80;99.90
24408;DHT22;12542;50.924;4.516;2023-02-15T18:58:01;9.90;99.90
24408;DHT22;12542;50.924;4.516;2023-02-15T19:00:30;9.90;99.90
24408;DHT22;12542;50.924;4.516;2023-02-15T19:03:00;9.80;99.90
24408;DHT22;12542;50.924;4.516;2023-02-15T19:05:28;9.80;99.90
24408;DHT22;12542;50.924;4.516;2023-02-15T19:07:54;9.70;99.90
24408;DHT22;12542;50.924;4.516;2023-02-15T19:10:22;9.70;99.90
24408;DHT22;12542;50.924;4.516;2023-02-15T19:12:49;9.60;99.90
24408;DHT22;12542;50.924;4.516;2023-02-15T19:15:29;9.60;99.90
24408;DHT22;12542;50.924;4.516;2023-02-15T19:17:55;9.80;99.90
24408;DHT22;12542;50.924;4.516;2023-02-15T19:20:25;9.60;99.90
24408;DHT22;12542;50.924;4.516;2023-02-15T19:22:52;9.60;99.90
24408;DHT22;12542;50.924;4.516;2023-02-15T19:25:31;9.60;99.90
24408;DHT22;12542;50.924;4.516;2023-02-15T19:27:58;9.60;99.90
24408;DHT22;12542;50.924;4.516;2023-02-15T19:30:29;9.60;99.90
24408;DHT22;12542;50.924;4.516;2023-02-15T19:32:57;9.60;99.90
24408;DHT22;12542;50.924;4.516;2023-02-15T19:35:25;9.60;99.90
24408;DHT22;12542;50.924;4.516;2023-02-15T19:37:56;9.50;99.90
24408;DHT22;12542;50.924;4.516;2023-02-15T19:40:30;9.50;99.90